Hampton Head 4's and 8's - 2016

by MyRaceTime.co.uk


Results by Division

Published on: 06 February 2016
Race Pos. > Category Pos. Comp. No. Comp. Name Category > Club Name > Time (hh:mm:ss:t) Prize
Division: 1
18 1 125 HAM-Kerr J18A.4- Hampton Sch BC 00:07:43:6 Prize
21 2 129 KCA-Nichols J18A.4- Kings Sch Canterbury 00:07:46:4
48 4 133 SWB-Bownass J18A.4- Sir W Borlase s GS BC 00:08:06:7
49 1 143 LOS-Quin J18A.4+ Lon Oratory Sch 00:08:07:0 Prize
54 1 8 NOW-A (Taylor) J18A.2x Northwich RC 00:08:09:8 Prize
55 1 146 WES-Cowling J16A.4- Westminster Sch 00:08:09:9 Prize
56 2 138 LTU-Phelps J18A.4+ Latymer Upper Sch 00:08:10:4
61 5 130 KGS-J184- J18A.4- Kingston G Sch 00:08:11:6
65 2 5 CCS-Cameron J18A.2x Claires Court Sch 00:08:12:3
66 3 4 WBS-Oliver J18A.2x Windsor Boys Sch 00:08:12:3
68 1 166 TSS-Okuka J16A.4+ Tideway Scullers Sch 00:08:12:5 Prize
69 1 299 LTU-A J14A.8x+ Latymer Upper Sch 00:08:12:7 Prize
71 6 132 CCS-Harris J18A.4- Claires Court Sch 00:08:13:7
72 2 147 GMS-Hardy J16A.4- Gt Marlow Sch 00:08:14:0
73 2 170 LOS-Maljkovic J16A.4+ Lon Oratory Sch 00:08:14:2
77 3 137 HAM-Stanhope J18A.4+ Hampton Sch BC 00:08:14:9
78 1 201 CBR-Fletcher J15A.4x+ City of Bristol RC 00:08:15:1 Prize
79 3 150 HAM-Ladhur J16A.4- Hampton Sch BC 00:08:15:4
85 8 127 MBC-Cook J18A.4- Molesey BC 00:08:18:5
89 1 46 WIN-Wythe J18A.2- Winchester Coll 00:08:19:5 Prize
90 4 9 MAR-Simon J18A.2x Marlow RC 00:08:21:4
93 9 135 KCA-John J18A.4- Kings Sch Canterbury 00:08:21:9
100 5 19 NOW-B(Dudley) J18A.2x Northwich RC 00:08:23:1
110 1 55 HEN-Turnell J16A.2x Henley RC 00:08:27:6 Prize
113 2 59 MHD-Kemp J16A.2x Maidenhead RC 00:08:29:1
114 2 43 WIN-Killian-Dawson J18A.2- Winchester Coll 00:08:30:0
115 2 315 LOS-Barria J14A.8x+ Lon Oratory Sch 00:08:30:6 Prize
116 3 167 KGS-Barnett J16A.4+ Kingston G Sch 00:08:30:9
117 3 36 WIN-Schröder J18A.2- Winchester Coll 00:08:32:5
119 4 47 HAM-Hassan J18A.2- Hampton Sch BC 00:08:32:6
122 5 44 HAM-Hickmott J18A.2- Hampton Sch BC 00:08:33:1
125 4 145 EMA-Soverall J18A.4+ Emanuel Sch 00:08:33:4
127 6 203 GMS-Honey J15A.4x+ Gt Marlow Sch 00:08:33:8
129 1 212 WLT-Suphi J15A.2x Walton RC 00:08:34:2 Prize
130 6 34 SWB-Bolton J18A.2- Sir W Borlase s GS BC 00:08:34:5
134 7 208 HAM-Zografakis J15A.4x+ Hampton Sch BC 00:08:35:2
137 5 141 WIN-Boswall J18A.4+ Winchester Coll 00:08:37:7
138 6 14 EMA-Roberts J18A.2x Emanuel Sch 00:08:38:4
139 3 56 CBR-Linton J16A.2x City of Bristol RC 00:08:39:1
140 7 33 HAM-Worthington J18A.2- Hampton Sch BC 00:08:39:7
144 7 29 CHH-Chichvarkin J18A.2x Charterhouse Sch BC 00:08:41:6
145 8 11 MHD-Felstead J18A.2x Maidenhead RC 00:08:41:8
149 1 221 SPS-Parish J15A.4+ St Pauls Sch BC 00:08:42:4 Prize
151 2 223 LTU-A J15A.4+ Latymer Upper Sch 00:08:42:8 Prize
152 4 168 SWB-Fisher J16A.4+ Sir W Borlase s GS BC 00:08:43:8
156 9 17 MBC-Hardy J18A.2x Molesey BC 00:08:44:5
157 8 39 HAM-Long J18A.2- Hampton Sch BC 00:08:44:8
158 1 323 LTU-A W.J14A.8x+ Latymer Upper Sch 00:08:45:0 Prize
159 11 128 GMS-Wheal J18A.4- Gt Marlow Sch 00:08:45:0
160 10 15 BCS-Quinn J18A.2x Bournemouth Collegiate 00:08:45:5
161 9 37 TRC-Tyrie J18A.2- Thames RC 00:08:46:2
162 5 162 HAM-Wright J16A.4+ Hampton Sch BC 00:08:46:3
163 10 41 KRC-Betty J18A.2- Kingston RC 00:08:46:4
166 4 61 WBS-Ellery J16A.2x Windsor Boys Sch 00:08:46:7
168 3 321 WIN-Davis J14A.8x+ Winchester Coll 00:08:47:3 Prize
169 4 317 HEN-Swinburn J14A.8x+ Henley RC 00:08:47:4
170 11 35 GMS-Nunn J18A.2- Gt Marlow Sch 00:08:47:4
172 5 52 MHD-Stepney J16A.2x Maidenhead RC 00:08:48:5
173 6 48 WBS-Shewell J16A.2x Windsor Boys Sch 00:08:49:3
174 2 218 LEA-den Dulk J15A.2x Lea RC 00:08:49:5 Prize
176 1 69 HEN-Wiggins W.J18A.2x Henley RC 00:08:49:7 Prize
178 6 161 WBS-Shaw J16A.4+ Windsor Boys Sch 00:08:50:2
180 2 326 LEH-Bridge W.J14A.8x+ Lady E Holles 00:08:50:6 Prize
181 3 227 LTU-B J15A.4+ Latymer Upper Sch 00:08:50:9 Prize
182 1 153 LEH-Reddish W.J18A.4- Lady E Holles 00:08:51:2 Prize
183 1 119 HAM-Fieldhouse J16A.2- Hampton Sch BC 00:08:51:8 Prize
184 1 183 HEN-Jones W.J16A.4- Henley RC 00:08:51:9 Prize
186 2 152 HEN-Sotnick W.J18A.4- Henley RC 00:08:52:9
187 7 53 LLA-Davies J16A.2x Llandaff RC 00:08:53:3
191 1 198 HED-Hornby W.J16A.4+ Headington Sch 00:08:54:1 Prize
192 4 226 HAM-Woo J15A.4+ Hampton Sch BC 00:08:54:2
193 12 207 GMS-Setford J15A.4x+ Gt Marlow Sch 00:08:54:2
194 1 268 WLT-McLennan J14A.4x+ Walton RC 00:08:54:2 Prize
197 5 229 SPS-Craig McFeely J15A.4+ St Pauls Sch BC 00:08:54:7
199 3 157 SWB-Reike W.J18A.4- Sir W Borlase s GS BC 00:08:55:3
201 5 309 LOS-Mrizaj J14A.8x+ Lon Oratory Sch 00:08:55:4
202 2 120 WLT-Wilkinson J16A.2- Walton RC 00:08:55:5
203 4 151 MAR-Treasure J16A.4- Marlow RC 00:08:55:6
204 2 84 NOW-Gillbanks W.J18A.2x Northwich RC 00:08:55:8
210 3 81 HED-King-SMith W.J18A.2x Headington Sch 00:08:56:5
211 6 230 BDS-Homan J15A.4+ Bedford Sch 00:08:56:7
212 7 222 HAM-Clark J15A.4+ Hampton Sch BC 00:08:56:9
214 11 23 HEN-Farley J18A.2x Henley RC 00:08:57:4
215 6 313 HAM-Morey J14A.8x+ Hampton Sch BC 00:08:57:4
218 8 224 SPS-Eaton J15A.4+ St Pauls Sch BC 00:08:59:4
219 3 215 ABV-Mitchell J15A.2x A B Severn BC 00:08:59:5 Prize
220 7 314 SWB-Cole J14A.8x+ Sir W Borlase s GS BC 00:08:59:6
221 4 77 HED-Rundle W.J18A.2x Headington Sch 00:08:59:6
224 12 42 WLT-Cleary J18A.2- Walton RC 00:09:00:0
225 8 57 ABV-Bennett J16A.2x A B Severn BC 00:09:00:9
227 4 158 PHS-Andrews W.J18A.4- Putney High Sch 00:09:01:6
230 12 26 MHD-Walters J18A.2x Maidenhead RC 00:09:02:0
231 13 12 WLT-Johal J18A.2x Walton RC 00:09:02:0
232 14 18 MAR-Bullivant J18A.2x Marlow RC 00:09:02:1
233 8 320 HAM-Thomas J14A.8x+ Hampton Sch BC 00:09:02:1
234 9 220 SWB-Brockwell J15A.4+ Sir W Borlase s GS BC 00:09:02:5
235 5 156 HED-Haskins W.J18A.4- Headington Sch 00:09:02:5
236 1 242 MHD-Holgate W.J15A.4x+ Maidenhead RC 00:09:02:6 Prize
237 9 305 WBS-Qureshi J14A.8x+ Windsor Boys Sch 00:09:02:7
239 7 160 CCS-Peck J16A.4+ Claires Court Sch 00:09:03:4
241 5 72 HED-Little W.J18A.2x Headington Sch 00:09:04:0
243 2 273 ABV-Sayers J14A.4x+ A B Severn BC 00:09:05:3 Prize
244 2 233 LTU-A W.J15A.4x+ Latymer Upper Sch 00:09:05:6 Prize
245 3 331 EMA-Coad W.J14A.8x+ Emanuel Sch 00:09:06:0 Prize
246 9 51 HEN-Smith J16A.2x Henley RC 00:09:06:0
247 1 257 HEN-Parfitt W.J15A.4+ Henley RC 00:09:06:1 Prize
248 1 173 SBT-Norton W.J18A.4+ Surbiton H Sch 00:09:06:2 Prize
249 10 225 LOS-Jinks J15A.4+ Lon Oratory Sch 00:09:06:4
252 4 324 GMS-Smith W.J14A.8x+ Gt Marlow Sch 00:09:08:4
253 1 102 HEN-Robinson Ranger W.J16A.2x Henley RC 00:09:08:5 Prize
254 3 232 LEH-Cooper W.J15A.4x+ Lady E Holles 00:09:08:6 Prize
256 4 235 TSS-Roberts W.J15A.4x+ Tideway Scullers Sch 00:09:09:5
260 15 209 BAE-Humphrey-Evans J15A.4x+ Barn Elms 00:09:10:6
261 2 108 HED-Burn W.J16A.2x Headington Sch 00:09:10:6
263 10 302 KCS-Mercieca J14A.8x+ Kings College Sch 00:09:11:3
264 3 117 GMS-Smith J16A.2- Gt Marlow Sch 00:09:11:6
265 2 179 LTU-A W.J18A.4+ Latymer Upper Sch 00:09:11:6
267 6 154 SBT-Gildersleve W.J18A.4- Surbiton H Sch 00:09:12:3
268 4 217 KSE-White J15A.2x Kings Sch Ely 00:09:12:3
269 15 16 SWB-Bains J18A.2x Sir W Borlase s GS BC 00:09:12:4
271 11 318 WES-Grewal J14A.8x+ Westminster Sch 00:09:12:7
272 6 240 LTU-B W.J15A.4x+ Latymer Upper Sch 00:09:13:1
273 3 180 SWB-Grego W.J18A.4+ Sir W Borlase s GS BC 00:09:13:4
274 5 338 SBT-Hunter W.J14A.8x+ Surbiton H Sch 00:09:13:5
275 16 27 BCS-Jones J18A.2x Bournemouth Collegiate 00:09:13:9
276 17 206 CHH-Campell-Wilson J15A.4x+ Charterhouse Sch BC 00:09:14:1
278 6 71 SGC-Laidler W.J18A.2x St Georges Coll 00:09:14:1
279 12 298 DUL-Hopper J14A.8x+ Dulwich Coll 00:09:14:4
281 1 95 LEH-Matthews W.J18A.2- Lady E Holles 00:09:14:6 Prize
282 6 337 KRC-Curtis W.J14A.8x+ Kingston RC 00:09:15:0
284 7 64 MAR-Matthews W.J18A.2x Marlow RC 00:09:15:3
285 5 214 MHD-Collett J15A.2x Maidenhead RC 00:09:15:4
286 2 193 LEH-Taylor W.J16A.4+ Lady E Holles 00:09:15:6
287 19 204 RDH-Sharp J15A.4x+ Radnor House Sch 00:09:15:9
289 13 303 HAM-Brown J14A.8x+ Hampton Sch BC 00:09:16:1
290 4 121 HAM-Davis J16A.2- Hampton Sch BC 00:09:17:0
291 7 330 BGS-Knight W.J14A.8x+ Bedford Girls Sch RC 00:09:17:0
295 8 80 ABV-Radley-Moore W.J18A.2x A B Severn BC 00:09:18:1
296 9 78 MBC-Grant W.J18A.2x Molesey BC 00:09:19:3
298 8 239 CBR-Dore W.J15A.4x+ City of Bristol RC 00:09:19:7
299 17 13 WBS-Laws J18A.2x Windsor Boys Sch 00:09:20:0
300 3 191 MAR-Bourne W.J16A.4+ Marlow RC 00:09:20:2
301 1 288 HEN-Weller W.J14A.4x+ Henley RC 00:09:20:2 Prize
303 3 103 MAR-Fennell W.J16A.2x Marlow RC 00:09:21:0
304 10 75 MAR-Claridge W.J18A.2x Marlow RC 00:09:21:5
306 9 234 HED-Barker W.J15A.4x+ Headington Sch 00:09:21:9
307 6 213 HEN-Issa J15A.2x Henley RC 00:09:22:3
309 14 312 SPS-Langstone-Bolt J14A.8x+ St Pauls Sch BC 00:09:22:8
310 3 271 ABN-Sherliker J14A.4x+ Abingdon RC 00:09:23:1 Prize
311 8 339 LEH-Tran W.J14A.8x+ Lady E Holles 00:09:24:0
312 13 45 WBS-Loughran J18A.2- Windsor Boys Sch 00:09:24:2
313 4 178 TRC-Havelock-Allan W.J18A.4+ Thames RC 00:09:24:9
314 5 175 GLT-Kirby W.J18A.4+ Godolphin Sch 00:09:25:2
315 9 328 HED-Klico W.J14A.8x+ Headington Sch 00:09:25:4
316 11 68 WBK-Warrior W.J18A.2x Walbrook 00:09:25:4
317 6 174 LEH-Allen W.J18A.4+ Lady E Holles 00:09:25:4
318 10 336 PHS-Hendry W.J14A.8x+ Putney High Sch 00:09:26:6
320 11 332 WBK-Moffatt W.J14A.8x+ Walbrook 00:09:27:8
322 2 261 EMA-Beams W.J15A.4+ Emanuel Sch 00:09:28:0 Prize
323 15 306 CCS-Falck Award J14A.8x+ Claires Court Sch 00:09:28:1
324 4 104 LEH-Mason W.J16A.2x Lady E Holles 00:09:28:2
328 16 304 KGS-A -Finn STBD J14A.8x+ Kingston G Sch 00:09:28:9
329 12 86 BGS-Crawford W.J18A.2x Bedford Girls Sch RC 00:09:29:2
330 13 82 KGS-George W.J18A.2x Kingston G Sch 00:09:29:4
331 13 3 ROB-Lambe W.J16A.4x- Rob Roy 00:09:29:4
332 2 91 GLT-Gay W.J18A.2- Godolphin Sch 00:09:30:1
333 17 310 KCS-Caouki J14A.8x+ Kings College Sch 00:09:30:7
335 18 7 MHD-Doodson J18A.2x Maidenhead RC 00:09:31:5
336 4 264 HEN-Beattie J14A.4x+ Henley RC 00:09:31:5
338 10 231 HEN-Gray W.J15A.4x+ Henley RC 00:09:32:9
339 11 228 KGS-J15 4+ J15A.4+ Kingston G Sch 00:09:32:9
340 4 189 BGS-Bailey W.J16A.4+ Bedford Girls Sch RC 00:09:34:2
341 5 114 CBR-Fowles W.J16A.2x City of Bristol RC 00:09:35:1
343 5 196 BGS-Mcdonagh W.J16A.4+ Bedford Girls Sch RC 00:09:35:7
345 6 106 MHD-Ross-Masson W.J16A.2x Maidenhead RC 00:09:36:1
346 3 93 SPG-Kirkpatrick W.J18A.2- St Pauls Girls Sch BC 00:09:36:3
349 12 333 LTU-B W.J14A.8x+ Latymer Upper Sch 00:09:36:4
350 1 122 LEH-Jackson W.J16A.2- Lady E Holles 00:09:36:4 Prize
352 4 90 LEH-Kelly W.J18A.2- Lady E Holles 00:09:36:6
354 5 98 SPG-Thomson W.J18A.2- St Pauls Girls Sch BC 00:09:37:9
355 6 89 HEN-Edwards W.J18A.2- Henley RC 00:09:38:1
357 24 202 CCS-Forster J15A.4x+ Claires Court Sch 00:09:39:2
358 7 113 WLT-Poole W.J16A.2x Walton RC 00:09:39:2
360 10 54 RDH-Randhawa J16A.2x Radnor House Sch 00:09:39:5
361 6 197 SPG W.J16A.4+ St Pauls Girls Sch BC 00:09:40:1
362 18 308 SWB-Rooney J14A.8x+ Sir W Borlase s GS BC 00:09:40:2
363 7 192 GLT-Thomson W.J16A.4+ Godolphin Sch 00:09:40:6
364 1 248 ABV-Huck W.J15A.2x A B Severn BC 00:09:40:8 Prize
365 14 237 EMA-Dibden W.J15A.4x+ Emanuel Sch 00:09:40:8
366 2 277 HEN-Roberts W.J14A.4x+ Henley RC 00:09:41:2 Prize
367 14 79 PHS-McIntyre W.J18A.2x Putney High Sch 00:09:41:9
368 15 236 KGS - 1 W.J15A.4x+ Kingston G Sch 00:09:42:2
369 7 100 LEH-Fjortoft W.J18A.2- Lady E Holles 00:09:42:4
370 3 258 GMS-Magnusson W.J15A.4+ Gt Marlow Sch 00:09:42:5 Prize
371 3 274 HED-Hayter W.J14A.4x+ Headington Sch 00:09:43:2 Prize
372 8 109 LEH-Breeze W.J16A.2x Lady E Holles 00:09:43:3
373 4 279 SBT-Edwards W.J14A.4x+ Surbiton H Sch 00:09:43:9
374 8 188 MBC-Wright W.J16A.4+ Molesey BC 00:09:43:9
376 19 316 DUL-Wermig J14A.8x+ Dulwich Coll 00:09:44:2
377 15 74 ROB-Larsson W.J18A.2x Rob Roy 00:09:44:9
378 16 85 PHS-Coni W.J18A.2x Putney High Sch 00:09:46:6
379 13 334 EMA-Goolnik W.J14A.8x+ Emanuel Sch 00:09:48:1
380 7 181 SPG W.J18A.4+ St Pauls Girls Sch BC 00:09:49:6
381 16 241 LEH-Camilleri W.J15A.4x+ Lady E Holles 00:09:51:1
382 20 322 KCS-Edwards J14A.8x+ Kings College Sch 00:09:51:1
383 5 285 MHD-Stavropoulos W.J14A.4x+ Maidenhead RC 00:09:51:2
384 9 110 ABN-Millard W.J16A.2x Abingdon RC 00:09:51:5
385 6 280 ABN-Sykes W.J14A.4x+ Abingdon RC 00:09:51:8
386 9 186 GMS-Cook W.J16A.4+ Gt Marlow Sch 00:09:52:1
387 19 21 CHH-Burnell J18A.2x Charterhouse Sch BC 00:09:52:2
388 7 219 WBK-Watson J15A.2x Walbrook 00:09:52:6
389 7 278 MAR-Huggett W.J14A.4x+ Marlow RC 00:09:52:7
392 17 65 LEH W.J18A.2x Lady E Holles 00:09:54:1
393 8 99 SPG-Valt W.J18A.2- St Pauls Girls Sch BC 00:09:56:1
394 11 60 RDH-Chaudoir J16A.2x Radnor House Sch 00:09:56:4
395 18 66 BGS-Crook W.J18A.2x Bedford Girls Sch RC 00:09:56:8
396 21 301 SPS-Comoli J14A.8x+ St Pauls Sch BC 00:09:56:8
397 19 88 SGC-Weaver W.J18A.2x St Georges Coll 00:09:56:9
398 9 97 MBC-Wheeldon W.J18A.2- Molesey BC 00:09:58:2
401 10 199 LEH-Bains W.J16A.4+ Lady E Holles 00:10:00:1
402 2 253 KSE-Greatrex W.J15A.2x Kings Sch Ely 00:10:00:6 Prize
403 20 83 TRC-Cibiliovaite W.J18A.2x Thames RC 00:10:01:0
404 22 307 WES-Broxham J14A.8x+ Westminster Sch 00:10:01:4
406 3 246 WBK-Bullard W.J15A.2x Walbrook 00:10:03:1 Prize
407 10 96 GMS-Paul W.J18A.2- Gt Marlow Sch 00:10:05:6
408 21 76 ABN-Rostant W.J18A.2x Abingdon RC 00:10:05:8
410 1 293 KRC-Garland-Bailey W.J13A.4x+ Kingston RC 00:10:07:2 Prize
411 10 115 SGC-Bates W.J16A.2x St Georges Coll 00:10:07:3
412 2 185 TTR-Smith W.J16A.4- Thames Tradesmen 00:10:07:8
413 4 244 HED-Brooks W.J15A.2x Headington Sch 00:10:08:2
414 8 291 MBC-Gooch W.J14A.4x+ Molesey BC 00:10:08:6
416 5 251 KSE-Fowler W.J15A.2x Kings Sch Ely 00:10:09:6
418 6 255 HED-Jones W.J15A.2x Headington Sch 00:10:13:1
419 23 319 KGS-B - Baker J14A.8x+ Kingston G Sch 00:10:13:8
420 7 250 MHD-Tomasik W.J15A.2x Maidenhead RC 00:10:14:5
421 8 252 TTR-Tombolis W.J15A.2x Thames Tradesmen 00:10:14:7
422 23 238 MBC-Dunford W.J15A.4x+ Molesey BC 00:10:15:0
423 2 123 BAE-Gracey W.J16A.2- Barn Elms 00:10:15:4
424 2 297 HEN-Copland W.J13A.4x+ Henley RC 00:10:15:9 Prize
425 9 286 BAE-Oliver W.J14A.4x+ Barn Elms 00:10:16:4
426 11 116 ABN-Dunmore W.J16A.2x Abingdon RC 00:10:17:0
427 3 294 HEN-Tait-Alexander W.J13A.4x+ Henley RC 00:10:19:3 Prize
428 10 275 SWB-Donnelly W.J14A.4x+ Sir W Borlase s GS BC 00:10:20:2
429 11 287 SBT-Sanders W.J14A.4x+ Surbiton H Sch 00:10:21:7
430 3 124 WLT-Banks W.J16A.2- Walton RC 00:10:26:7
431 12 282 TTR-Hammond W.J14A.4x+ Thames Tradesmen 00:10:29:2
432 4 295 WBK-Singham W.J13A.4x+ Walbrook 00:10:29:7
434 13 276 KGS-A -Adam W.J14A.4x+ Kingston G Sch 00:10:37:0
436 14 329 KGS-Garbett W.J14A.8x+ Kingston G Sch 00:10:43:4
437 9 245 KSE-Dickens W.J15A.2x Kings Sch Ely 00:10:44:5
438 14 289 SWB-France W.J14A.4x+ Sir W Borlase s GS BC 00:10:45:7
439 10 247 MHD-Shelley-Smith W.J15A.2x Maidenhead RC 00:10:49:4
440 15 283 SWB-Broadbent W.J14A.4x+ Sir W Borlase s GS BC 00:10:50:7
441 5 272 WBS-Davis J14A.4x+ Windsor Boys Sch 00:10:51:3
442 11 254 KGS - 1 W.J15A.2x Kingston G Sch 00:10:51:4
443 6 263 WBS-Hill-Parsons J14A.4x+ Windsor Boys Sch 00:11:09:0
444 16 290 KGS-B - Booth W.J14A.4x+ Kingston G Sch 00:11:17:6
445 12 249 MBC-Ferguson W.J15A.2x Molesey BC 00:11:21:4
446 7 262 CCS-Stuji J14A.4x+ Claires Court Sch 00:12:59:8
447 11 92 MCA-Roe W.J18A.2- Mossbourne 09:26:06:0
Time Only 2 SBT-Anderson W.J18. 4x- Surbiton High 00:08:37:3
Time Only 6 ASL/TSS J18A.2x ASL/TSS 00:08:10:8
Time Only 10 TSS/WGT J18A.2x TSS/WGT 00:08:39:5
Time Only 25 SWB-Wolfin J18A.2x Sir W Borlase s GS BC 00:08:25:0
Time Only 67 TRC/TSS W.J18A.2x TRC/TSS 00:08:53:3
Time Only 70 MAR/MHD W.J18A.2x MAR/MHD 00:09:08:3
Scratched 1 SPS-Ripley J18A.8+ St Pauls Sch BC 00:00:00:0
Scratched 20 MHD-O Mahony J18A.2x Maidenhead RC 00:00:00:0
Scratched 22 CCS-Gronmark J18A.2x Claires Court Sch 00:00:00:0
Scratched 24 WBS-Laws-2 J18A.2x Windsor Boys Sch 00:00:00:0
Scratched 28 LLA-John J18A.2x Llandaff RC 00:00:00:0
Scratched 30 LEA-Moore J18A.2x Lea RC 00:00:00:0
Scratched 31 LTU-MisCampbell J18A.2- Latymer Upper Sch 00:00:00:0
Scratched 32 MBC-Ayres J18A.2- Molesey BC 00:00:00:0
Scratched 38 WBS-Simmonds J18A.2- Windsor Boys Sch 00:00:00:0
Scratched 40 MCA-Segilia J18A.2- Mossbourne 00:00:00:0
Scratched 49 ROB-Charlesworth J16A.2x Rob Roy 00:00:00:0
Scratched 50 RBL-Ashwanden J16A.2x Reading Blue Coat Sch 00:00:00:0
Scratched 58 HEN-Zolkwer J16A.2x Henley RC 00:00:00:0
Scratched 62 SAA-Devereux J16A.2x Star & Arrow 00:00:00:0
Scratched 63 RBL-Lightning J16A.2x Reading Blue Coat Sch 00:00:00:0
Scratched 73 KGS-Ibbetson W.J18A.2x Kingston G Sch 00:00:00:0
Scratched 87 SWB-Woffinden W.J18A.2x Sir W Borlase s GS BC 00:00:00:0
Scratched 94 SWB-Forster W.J18A.2- Sir W Borlase s GS BC 00:00:00:0
Scratched 101 WLT-Gray W.J18A.2- Walton RC 00:00:00:0
Scratched 105 SWP-Garnham W.J16A.2x Sir William Perkins s Sch 00:00:00:0
Scratched 107 SWP-Dalton W.J16A.2x Sir William Perkins s Sch 00:00:00:0
Scratched 111 ROB-Thomson W.J16A.2x Rob Roy 00:00:00:0
Scratched 112 KSE-Lancaster W.J16A.2x Kings Sch Ely 00:00:00:0
Scratched 118 SPS-Roma J16A.2- St Pauls Sch BC 00:00:00:0
Scratched 126 RBL-Smith J18A.4- Reading Blue Coat Sch 00:00:00:0
Scratched 131 BMS-Wilson J18A.4- Bedford Modern Sch 00:00:00:0
Scratched 134 GMS-Money J18A.4- Gt Marlow Sch 00:00:00:0
Scratched 136 RBL-Grainger J18A.4- Reading Blue Coat Sch 00:00:00:0
Scratched 139 BMS-Mackay J18A.4+ Bedford Modern Sch 00:00:00:0
Scratched 140 CAN-Radvan J18A.4+ Canford Sch 00:00:00:0
Scratched 142 RBL-Temple J18A.4+ Reading Blue Coat Sch 00:00:00:0
Scratched 144 CAN-Smith J18A.4+ Canford Sch 00:00:00:0
Scratched 148 LTU-McChesney J16A.4- Latymer Upper Sch 00:00:00:0
Scratched 149 SPS-Zussman J16A.4- St Pauls Sch BC 00:00:00:0
Scratched 155 BMS-Cowie W.J18A.4- Bedford Modern Sch 00:00:00:0
Scratched 159 SPS-Majumdar J16A.4+ St Pauls Sch BC 00:00:00:0
Scratched 163 RBL-Guthrie J16A.4+ Reading Blue Coat Sch 00:00:00:0
Scratched 164 DUL-Depel J16A.4+ Dulwich Coll 00:00:00:0
Scratched 165 CAN-Dyball J16A.4+ Canford Sch 00:00:00:0
Scratched 169 RBL-Corbin J16A.4+ Reading Blue Coat Sch 00:00:00:0
Scratched 171 HAM-Lea J16A.4+ Hampton Sch BC 00:00:00:0
Scratched 172 HAB-Du Toit W.J18A.4+ HMSG RC 00:00:00:0
Scratched 176 RBL - Coxed 4 W.J18A.4+ Reading Blue Coat Sch 00:00:00:0
Scratched 177 CAN-Lander W.J18A.4+ Canford Sch 00:00:00:0
Scratched 182 BMS-McWilliams W.J18A.4+ Bedford Modern Sch 00:00:00:0
Scratched 184 SPG W.J16A.4- St Pauls Girls Sch BC 00:00:00:0
Scratched 187 BMS-Bygraves W.J16A.4+ Bedford Modern Sch 00:00:00:0
Scratched 190 CAN-Hollingbery W.J16A.4+ Canford Sch 00:00:00:0
Scratched 194 HAB-Wolf W.J16A.4+ HMSG RC 00:00:00:0
Scratched 195 SWP-Hide W.J16A.4+ Sir William Perkins s Sch 00:00:00:0
Scratched 200 HAB-Blagbrough W.J16A.4+ HMSG RC 00:00:00:0
Scratched 205 CCS-Walton J15A.4x+ Claires Court Sch 00:00:00:0
Scratched 210 WBS-Fradin de La Renaudiere J15A.2x Windsor Boys Sch 00:00:00:0
Scratched 211 HAM-Woodall J15A.2x Hampton Sch BC 00:00:00:0
Scratched 216 HAM-Chapman-Hatchett J15A.2x Hampton Sch BC 00:00:00:0
Scratched 243 KGS - 2 W.J15A.4x+ Kingston G Sch 00:00:00:0
Scratched 256 LTU-A W.J15A.4+ Latymer Upper Sch 00:00:00:0
Scratched 259 CAN-Patrick W.J15A.4+ Canford Sch 00:00:00:0
Scratched 260 KGS - 1 W.J15A.4+ Kingston G Sch 00:00:00:0
Scratched 265 HAM-Winskell J14A.4x+ Hampton Sch BC 00:00:00:0
Scratched 266 MBC-Buck J14A.4x+ Molesey BC 00:00:00:0
Scratched 267 WBS-van Gelderen J14A.4x+ Windsor Boys Sch 00:00:00:0
Scratched 269 HAM-Mason J14A.4x+ Hampton Sch BC 00:00:00:0
Scratched 270 CBR-Sinclair J14A.4x+ City of Bristol RC 00:00:00:0
Scratched 281 MCA-Coode W.J14A.4x+ Mossbourne 00:00:00:0
Scratched 284 LEH-Pillay W.J14A.4x+ Lady E Holles 00:00:00:0
Scratched 292 HAB-Frankel W.J14A.4x+ HMSG RC 00:00:00:0
Scratched 296 TTR-Tombolis W.J13A.4x+ Thames Tradesmen 00:00:00:0
Scratched 300 LOS-White J14A.8x+ Lon Oratory Sch 00:00:00:0
Scratched 311 BMS - A J14A.8x+ Bedford Modern Sch 00:00:00:0
Scratched 325 GLT-Barker W.J14A.8x+ Godolphin Sch 00:00:00:0
Scratched 327 ROS-Smith W.J14A.8x+ Ross RC 00:00:00:0
Scratched 335 BMS-Eales W.J14A.8x+ Bedford Modern Sch 00:00:00:0
Division: 2
1 1 401 X1 J18A.8+ Westminster Sch 00:07:12:9 Prize
2 2 405 RAD-Hazell J18A.8+ Radley College 00:07:16:2
3 3 408 WIN-Wythe J18A.8+ Winchester Coll 00:07:16:7
4 4 403 HAM-last chance saloon J18A.8+ Hampton Sch BC 00:07:17:1
5 5 417 SES-Smith J18A.8+ St Edwards Sch 00:07:21:0
6 6 418 LOS-Quin J18A.8+ Lon Oratory Sch 00:07:23:0
7 1 449 X2 J18 2nd 8+ Westminster Sch 00:07:27:6 Prize
8 7 410 KCA-Nichols J18A.8+ Kings Sch Canterbury 00:07:32:2
9 2 447 HAM-EARLY BIRD DINNER J18 2nd 8+ Hampton Sch BC 00:07:32:2
10 8 402 LTU-1 J18A.8+ Latymer Upper Sch 00:07:32:6
11 1 420 NOW-A(Lawton) J18A.4x- Northwich RC 00:07:35:6 Prize
12 9 406 KGS J18A.8+ Kingston G Sch 00:07:37:1
13 10 415 DUL-Wheeler J18A.8+ Dulwich Coll 00:07:41:0
14 3 452 LOS-Lyons J18 2nd 8+ Lon Oratory Sch 00:07:41:4
15 2 428 MHD-O Mahony J18A.4x- Maidenhead RC 00:07:42:2
16 11 414 WBS-Loughran J18A.8+ Windsor Boys Sch 00:07:42:2
17 12 407 BMS-MACKAY J18A.8+ Bedford Modern Sch 00:07:42:9
19 1 454 HAM-Davis J16A.8+ Hampton Sch BC 00:07:44:8 Prize
20 1 490 x 16 158 J15A.8+ Westminster Sch 00:07:46:2 Prize
22 3 445 LEA-Badcott J18A.4x- Lea RC 00:07:47:1
23 4 429 WBS-Smith J18A.4x- Windsor Boys Sch 00:07:47:8
24 5 440 HWG-Williams J18A.4x- RGS High Wycombe 00:07:49:9
25 13 411 CCS-Harris J18A.8+ Claires Court Sch 00:07:51:3
26 6 422 CCS-Cameron J18A.4x- Claires Court Sch 00:07:51:6
27 2 456 DUL-Wendler J16A.8+ Dulwich Coll 00:07:53:5
28 4 453 HAM-Catching the worm J18 2nd 8+ Hampton Sch BC 00:07:55:3
29 7 423 TRC-Beaty J18A.4x- Thames RC 00:07:55:7
30 3 455 RAD-Senior J16A.8+ Radley College 00:07:56:3
31 8 421 TSS-Mac-Fall J18A.4x- Tideway Scullers Sch 00:07:57:6
32 1 460 TSS-Joss J16A.4x- Tideway Scullers Sch 00:07:58:1 Prize
33 9 432 MAR-Simon J18A.4x- Marlow RC 00:07:59:0
34 1 506 HEN-Lister W.J18A.8+ Henley RC 00:07:59:4 Prize
35 2 461 GMS-Smith J16A.4x- Gt Marlow Sch 00:08:00:4
36 3 475 MBC-Ayres J18A.4- Molesey BC 00:08:01:1
37 2 484 HAM-Zografakis J15A.8+ Hampton Sch BC 00:08:01:9 Prize
38 3 496 MAR-Long J15A.8+ Marlow RC 00:08:02:8 Prize
39 1 480 HAM-Wright J16 2nd 8+ Hampton Sch BC 00:08:02:8 Prize
40 14 416 EMA-O Riordan J18A.8+ Emanuel Sch 00:08:03:8
41 5 448 RAD-Elworthy J18 2nd 8+ Radley College 00:08:03:9
42 10 443 NOW-B(Crouchley) J18A.4x- Northwich RC 00:08:04:7
43 11 438 SWB-Bennett J18A.4x- Sir W Borlase s GS BC 00:08:05:2
44 12 441 MHD-Collins J18A.4x- Maidenhead RC 00:08:06:1
45 4 487 SPS-Parish J15A.8+ St Pauls Sch BC 00:08:06:5
46 15 413 BRY-Ellis J18A.8+ Bryanston Sch 00:08:06:6
47 13 431 SWB-Paskins J18A.4x- Sir W Borlase s GS BC 00:08:06:6
50 3 464 HEN-Zolkwer J16A.4x- Henley RC 00:08:07:4
51 14 433 STA-Gowing J18A.4x- Star Club 00:08:08:6
52 15 425 GMS-McKenzie J18A.4x- Gt Marlow Sch 00:08:09:0
53 16 419 WGT-Hayes J18A.8+ Whitgift Sch BC 00:08:09:3
57 5 485 LTU-Heeringa J15A.8+ Latymer Upper Sch 00:08:10:7
58 4 471 MBC-Wedlake J16A.4x- Molesey BC 00:08:11:0
59 2 510 NRC-Jenkins W.J18A.8+ Nottingham RC 00:08:11:0
60 2 478 SPS-Von Polach J16 2nd 8+ St Pauls Sch BC 00:08:11:2
62 16 430 MBC-Steel J18A.4x- Molesey BC 00:08:11:8
63 6 497 HAM-Clark J15A.8+ Hampton Sch BC 00:08:11:8
64 5 469 CBR-Kilgour J16A.4x- City of Bristol RC 00:08:12:2
67 6 470 HWG-Smith J16A.4x- RGS High Wycombe 00:08:12:5
70 3 509 MAR-Matthews W.J18A.8+ Marlow RC 00:08:13:2
74 1 554 SPS-Craig-McFeely J15 2nd 8+ St Pauls Sch BC 00:08:14:5 Prize
75 4 511 LEA-Downey W.J18A.8+ Lea RC 00:08:14:5
76 1 560 LEH - Snelling W.J16A.8+ Lady E Holles 00:08:14:6 Prize
80 2 558 HEN-Poulter W.J16A.8+ Henley RC 00:08:16:4
81 7 466 MAR-Treasure J16A.4x- Marlow RC 00:08:16:4
82 7 491 Wainwright J15A.8+ Bedford Sch 00:08:16:4
83 7 476 KRC-Betty J18A.4- Kingston RC 00:08:17:9
84 4 457 SWB-Smith J16A.8+ Sir W Borlase s GS BC 00:08:18:4
86 5 507 LEH - Cole W.J18A.8+ Lady E Holles 00:08:19:0
87 6 505 HED-Curtis W.J18A.8+ Headington Sch 00:08:19:0
88 8 463 WBS-Bartoletti J16A.4x- Windsor Boys Sch 00:08:19:4
91 8 483 DUL-Wolff J15A.8+ Dulwich Coll 00:08:21:5
92 9 465 LLA-Bowman J16A.4x- Llandaff RC 00:08:21:8
94 10 462 LTUWard J16A.4x- Latymer Upper Sch 00:08:21:9
95 17 427 HEN-Farley J18A.4x- Henley RC 00:08:22:3
96 1 528 HED-King-SMith W.J18A.4x- Headington Sch 00:08:22:3 Prize
97 2 526 MBC-Wheeldon W.J18A.4x- Molesey BC 00:08:22:6
98 3 519 SBT-Anderson W.J18A.4x- Surbiton H Sch 00:08:22:9
99 9 493 WIN-Hayes J15A.8+ Winchester Coll 00:08:23:1
101 4 540 SHV-Thompson W.J18A.4x- Shiplake Vikings 00:08:23:5
102 2 607 WLT-Suphi J15A.4x+ Walton RC 00:08:23:8 Prize
103 10 486 GMS-Setford J15A.8+ Gt Marlow Sch 00:08:23:9
104 11 468 MHD-Stepney J16A.4x- Maidenhead RC 00:08:23:9
105 3 603 HEN-Spiers J15A.4x+ Henley RC 00:08:24:4 Prize
106 11 489 KGS-A J15A.8+ Kingston G Sch 00:08:25:0
107 12 499 A J15A.8+ Kings College Sch 00:08:26:3
108 4 616 TSS-Jonas J15A.4x+ Tideway Scullers Sch 00:08:26:7
109 3 479 DUL-Sampson J16 2nd 8+ Dulwich Coll 00:08:26:8
111 5 618 WBS-Cleare J15A.4x+ Windsor Boys Sch 00:08:28:2
112 5 459 BRY-Von Halem J16A.8+ Bryanston Sch 00:08:28:3
118 7 517 SPG W.J18A.8+ St Pauls Girls Sch BC 00:08:32:5
120 8 512 SBT-Pearson W.J18A.8+ Surbiton H Sch 00:08:32:6
121 2 546 RAD-Cayzer J15 2nd 8+ Radley College 00:08:33:0
123 18 439 TSS-Phelan J18A.4x- Tideway Scullers Sch 00:08:33:1
124 9 514 EMA-Chauhan-Sims W.J18A.8+ Emanuel Sch 00:08:33:4
126 5 529 TRC-Munyard W.J18A.4x- Thames RC 00:08:33:5
128 19 424 SWB-Ashman J18A.4x- Sir W Borlase s GS BC 00:08:33:8
131 13 482 RAD-Metcalf J15A.8+ Radley College 00:08:34:6
132 10 508 SWB-Ryman-King W.J18A.8+ Sir W Borlase s GS BC 00:08:34:7
133 3 555 DUL-Akinjewe J15 2nd 8+ Dulwich Coll 00:08:34:8
135 8 609 KRC-Brook J15A.4x+ Kingston RC 00:08:37:0
136 9 606 HWG-Iqbal J15A.4x+ RGS High Wycombe 00:08:37:2
141 10 614 ABV-Mitchell J15A.4x+ A B Severn BC 00:08:39:9
142 11 599 CCS-Broadhead J15A.4x+ Claires Court Sch 00:08:40:4
143 1 585 LTU-A W.J15A.8+ Latymer Upper Sch 00:08:41:0 Prize
146 11 513 BMS-McWilliams W.J18A.8+ Bedford Modern Sch 00:08:42:0
147 6 532 SWB-Reike W.J18A.4x- Sir W Borlase s GS BC 00:08:42:1
148 10 477 WLT-Pickering J18A.4- Walton RC 00:08:42:2
150 14 488 BMS-A J15A.8+ Bedford Modern Sch 00:08:42:8
153 4 553 HAM-Woo J15 2nd 8+ Hampton Sch BC 00:08:44:0
154 7 521 LTU-A W.J18A.4x- Latymer Upper Sch 00:08:44:4
155 3 561 LTU-A W.J16A.8+ Latymer Upper Sch 00:08:44:5
164 1 569 NRC-Draycott W.J16A.4x- Nottingham RC 00:08:46:6 Prize
165 8 520 PHS-Andrews W.J18A.4x- Putney High Sch 00:08:46:6
167 4 559 LEA-Froggatt-Brown W.J16A.8+ Lea RC 00:08:46:8
171 5 564 LEH-Bains W.J16A.8+ Lady E Holles 00:08:48:2
175 20 442 STA-Sharp J18A.4x- Star Club 00:08:49:5
177 15 502 WGT-Haslam J15A.8+ Whitgift Sch BC 00:08:49:8
179 21 436 EMA-Owens J18A.4x- Emanuel Sch 00:08:50:5
185 9 522 COX-Payton W.J18A.4x- City of Oxford 00:08:52:6
188 5 547 DUL-Holmes J15 2nd 8+ Dulwich Coll 00:08:53:7
189 16 494 LOS-Mebrahtu J15A.8+ Lon Oratory Sch 00:08:53:8
190 10 527 Peterson W.J18A.4x- Godolphin Sch 00:08:54:1
195 6 567 BGS-Hopewell W.J16A.8+ Bedford Girls Sch RC 00:08:54:5
196 13 604 QPH-Harris J15A.4x+ Queens Park H Sch 00:08:54:5
198 2 586 LEH-Witt W.J15A.8+ Lady E Holles 00:08:55:1 Prize
200 2 568 HED-Lockhart W.J16A.4x- Headington Sch 00:08:55:3
205 3 587 HEN-Parfitt W.J15A.8+ Henley RC 00:08:55:8 Prize
206 6 549 SPS-Spiers J15 2nd 8+ St Pauls Sch BC 00:08:55:9
207 11 539 NOW-Trigg W.J18A.4x- Northwich RC 00:08:56:2
208 12 473 CHH-Rockingham J16A.4x- Charterhouse Sch BC 00:08:56:2
209 12 544 SWP-Dawson W.J18A.4x- Sir William Perkins s Sch 00:08:56:4
213 12 518 LEH - Allen W.J18A.8+ Lady E Holles 00:08:56:9
216 3 576 MBC-Truett W.J16A.4x- Molesey BC 00:08:58:6
217 17 500 KCA-Manasse J15A.8+ Kings Sch Canterbury 00:08:59:2
222 7 551 B J15 2nd 8+ Kings College Sch 00:08:59:8
223 4 572 ROB-Clements W.J16A.4x- Rob Roy 00:08:59:9
226 4 595 EMA-Beams W.J15A.8+ Emanuel Sch 00:09:01:3
228 5 574 PHS-Scambler W.J16A.4x- Putney High Sch 00:09:01:9
229 6 581 ABV-Radley-Moore W.J16A.4x- A B Severn BC 00:09:02:0
238 7 578 COX-Cherry W.J16A.4x- City of Oxford 00:09:02:9
240 8 580 LLA-Williams W.J16A.4x- Llandaff RC 00:09:04:0
242 9 579 CBR-Dore W.J16A.4x- City of Bristol RC 00:09:04:2
250 14 613 KSE-Tomlinson J15A.4x+ Kings Sch Ely 00:09:07:1
251 5 593 MHD-Tomasik W.J15A.8+ Maidenhead RC 00:09:08:4
255 13 541 SGC-Mason W.J18A.4x- St Georges Coll 00:09:08:8
257 14 536 MHD-Ross-Masson W.J18A.4x- Maidenhead RC 00:09:09:6
258 6 588 GMS-Martin W.J15A.8+ Gt Marlow Sch 00:09:09:9
259 15 537 TSS-Cossey W.J18A.4x- Tideway Scullers Sch 00:09:10:3
262 16 617 EMA-Silver J15A.4x+ Emanuel Sch 00:09:10:9
266 10 573 HED-Melville W.J16A.4x- Headington Sch 00:09:12:0
270 5 626 MAR-Brooks W.J15A.4x+ Marlow RC 00:09:12:4
277 18 612 CCS-Hall J15A.4x+ Claires Court Sch 00:09:14:1
280 22 446 Theo J18A.4x- Wellington College 00:09:14:5
283 16 525 BGS-Crook W.J18A.4x- Bedford Girls Sch RC 00:09:15:0
288 7 624 HED-Brooks W.J15A.4x+ Headington Sch 00:09:16:0
292 7 589 SWB-Heuser W.J15A.8+ Sir W Borlase s GS BC 00:09:17:2
293 11 570 EMA-Moy W.J16A.4x- Emanuel Sch 00:09:17:2
294 8 592 EMA-Hunt W.J15A.8+ Emanuel Sch 00:09:17:6
297 17 534 QPH-Williamson W.J18A.4x- Queens Park H Sch 00:09:19:6
302 18 542 GLT-Hayes W.J18A.4x- Godolphin Sch 00:09:20:4
305 19 523 EMA-Foreshew W.J18A.4x- Emanuel Sch 00:09:21:7
308 20 608 SWB-Brockwell J15A.4x+ Sir W Borlase s GS BC 00:09:22:6
319 9 598 LTU-B W.J15A.8+ Latymer Upper Sch 00:09:27:2
321 7 584 WLT-Gray W.J18A.4- Walton RC 00:09:28:0
325 21 615 WBS-Macklin J15A.4x+ Windsor Boys Sch 00:09:28:3
326 12 575 SWB-Grego W.J16A.4x- Sir W Borlase s GS BC 00:09:28:3
327 7 565 SPG W.J16A.8+ St Pauls Girls Sch BC 00:09:28:5
334 20 538 WBK-Warrior W.J18A.4x- Walbrook 00:09:31:0
337 22 610 WBK-Watson J15A.4x+ Walbrook 00:09:32:5
342 10 594 Libby W.J15A.8+ Godolphin Sch 00:09:35:6
344 11 633 WLT-Poole W.J15A.4x+ Walton RC 00:09:36:0
347 8 582 GMS-Chaney W.J18A.4- Gt Marlow Sch 00:09:36:4
348 12 631 HED-Nott W.J15A.4x+ Headington Sch 00:09:36:4
351 23 600 SWB-Slater J15A.4x+ Sir W Borlase s GS BC 00:09:36:6
353 11 596 KRC-Sullivan W.J15A.8+ Kingston RC 00:09:36:9
356 21 535 SWP-Glover W.J18A.4x- Sir William Perkins s Sch 00:09:39:1
359 13 619 ROB-Wolfson W.J15A.4x+ Rob Roy 00:09:39:5
375 13 516 BRY - A W.J18A.8+ Bryanston Sch 00:09:44:2
390 17 634 LEH-Kamboj W.J15A.4x+ Lady E Holles 00:09:53:3
391 25 611 EMA-Whyte J15A.4x+ Emanuel Sch 00:09:53:6
399 18 622 SWB-Hussain W.J15A.4x+ Sir W Borlase s GS BC 00:09:59:3
400 14 577 TTR-Smith W.J16A.4x- Thames Tradesmen 00:09:59:6
405 19 620 KSE-Whiteside W.J15A.4x+ Kings Sch Ely 00:10:01:6
409 20 627 WBK-Bullard W.J15A.4x+ Walbrook 00:10:06:9
415 21 628 GLT-Taylor W.J15A.4x+ Godolphin Sch 00:10:09:2
417 22 623 MHD-Hollis W.J15A.4x+ Maidenhead RC 00:10:10:6
433 24 625 LLA-Wright W.J15A.4x+ Llandaff RC 00:10:30:4
435 25 630 SHO-Dale W.J15A.4x+ Shoreham 00:10:39:2
Time Only 504 SES-A J15A.8+ St Edwards Sch 00:08:05:6
Time Only 699 SES-A W.J15A.8+ St Edwards Sch 00:09:13:0
Scratched 404 RBL-Grainger J18A.8+ Reading Blue Coat Sch 00:00:00:0
Scratched 409 CAN-Robson J18A.8+ Canford Sch 00:00:00:0
Scratched 412 ORA-Archer J18A.8+ Oratory Sch 00:00:00:0
Scratched 426 LDR-Forsythe J18A.4x- Leander 00:00:00:0
Scratched 434 ROB-Turnbull J18A.4x- Rob Roy 00:00:00:0
Scratched 435 OUN-Volkwein J18A.4x- Oundle Sch 00:00:00:0
Scratched 437 TFN-Morris J18A.4x- Tiffin Sch 00:00:00:0
Scratched 444 TFN-Plunkett J18A.4x- Tiffin Sch 00:00:00:0
Scratched 450 BMS-BYGRAVES J18 2nd 8+ Bedford Modern Sch 00:00:00:0
Scratched 451 RBL-Smith J18 2nd 8+ Reading Blue Coat Sch 00:00:00:0
Scratched 458 SGC-Dalton J16A.8+ St Georges Coll 00:00:00:0
Scratched 467 OUN-Davis Gimeno J16A.4x- Oundle Sch 00:00:00:0
Scratched 472 RBL-Shimmin J16A.4x- Reading Blue Coat Sch 00:00:00:0
Scratched 474 GMS-McKenzie J16A.4x- Gt Marlow Sch 00:00:00:0
Scratched 481 RBL-Ramskill J16 2nd 8+ Reading Blue Coat Sch 00:00:00:0
Scratched 492 SGC-Noyes J15A.8+ St Georges Coll 00:00:00:0
Scratched 495 CAN-Gater J15A.8+ Canford Sch 00:00:00:0
Scratched 498 BRY-A J15A.8+ Bryanston Sch 00:00:00:0
Scratched 501 ORA-Grenfell J15A.8+ Oratory Sch 00:00:00:0
Scratched 503 SHP-A J15A.8+ Shiplake College 00:00:00:0
Scratched 515 GLT-Turner W.J18A.8+ Godolphin Sch 00:00:00:0
Scratched 524 KRC-Bate W.J18A.4x- Kingston RC 00:00:00:0
Scratched 530 KGS-Thom W.J18A.4x- Kingston G Sch 00:00:00:0
Scratched 531 HED-Townley W.J18A.4x- Headington Sch 00:00:00:0
Scratched 533 OUN-A W.J18A.4x- Oundle Sch 00:00:00:0
Scratched 543 RBL- W4x- W.J18A.4x- Reading Blue Coat Sch 00:00:00:0
Scratched 545 OUN-B W.J18A.4x- Oundle Sch 00:00:00:0
Scratched 548 BMS-B J15 2nd 8+ Bedford Modern Sch 00:00:00:0
Scratched 550 BDS-Billington J15 2nd 8+ Bedford Sch 00:00:00:0
Scratched 552 KGS-B J15 2nd 8+ Kingston G Sch 00:00:00:0
Scratched 556 RAD-Shott J15 2nd 8+ Radley College 00:00:00:0
Scratched 557 SHP-B J15 2nd 8+ Shiplake College 00:00:00:0
Scratched 562 HAB-Wolf W.J16A.8+ HMSG RC 00:00:00:0
Scratched 563 SWP-Donnelly W.J16A.8+ Sir William Perkins s Sch 00:00:00:0
Scratched 566 ROS-Westley W.J16A.8+ Ross RC 00:00:00:0
Scratched 571 KSE-Moore W.J16A.4x- Kings Sch Ely 00:00:00:0
Scratched 583 HAB-Du Toit W.J18A.4- HMSG RC 00:00:00:0
Scratched 590 CAN-Baldwin W.J15A.8+ Canford Sch 00:00:00:0
Scratched 591 KGS - 1 W.J15A.8+ Kingston G Sch 00:00:00:0
Scratched 597 SGC - Roebuck W.J15A.8+ St Georges Coll 00:00:00:0
Scratched 601 MBC-Miller J15A.4x+ Molesey BC 00:00:00:0
Scratched 602 WGT-Caujolle J15A.4x+ Whitgift Sch BC 00:00:00:0
Scratched 605 HAM-Campbell J15A.4x+ Hampton Sch BC 00:00:00:0
Scratched 621 ROS-Russell W.J15A.4x+ Ross RC 00:00:00:0
Scratched 629 CAN-Imms W.J15A.4x+ Canford Sch 00:00:00:0
Scratched 632 BMS-Decker W.J15A.4x+ Bedford Modern Sch 00:00:00:0
Scratched 635 BMS-Wharton W.J15A.4x+ Bedford Modern Sch 00:00:00:0
Scratched 636 HAB-Finch W.J15A.4x+ HMSG RC 00:00:00:0